createdAt,value
2018-09-29T00:00:30.809Z,80.52
2018-09-29T00:01:30.779Z,80.11
2018-09-29T00:02:30.768Z,80.66
2018-09-29T00:03:30.783Z,80.66
2018-09-29T00:04:30.748Z,80.66
2018-09-29T00:05:30.737Z,80.66
2018-09-29T00:06:30.756Z,80.56
2018-09-29T00:07:30.717Z,80.76
2018-09-29T00:08:30.702Z,80.66
2018-09-29T00:09:30.709Z,80.04
2018-09-29T00:10:30.680Z,80.76
2018-09-29T00:11:30.685Z,81.38
2018-09-29T00:12:30.674Z,80.76
2018-09-29T00:13:30.664Z,80.66
2018-09-29T00:14:30.639Z,81.49
2018-09-29T00:15:30.627Z,81.28
2018-09-29T00:16:30.621Z,81.28
2018-09-29T00:17:30.624Z,81.49
2018-09-29T00:18:30.595Z,81.49
2018-09-29T00:19:30.584Z,81.49
2018-09-29T00:20:30.573Z,80.76
2018-09-29T00:21:30.562Z,81.49
2018-09-29T00:22:30.566Z,81.28
2018-09-29T00:23:30.551Z,81.07
2018-09-29T00:24:30.529Z,81.32
2018-09-29T00:25:30.520Z,81.32
2018-09-29T00:26:30.519Z,81.21
2018-09-29T00:27:30.498Z,81.42
2018-09-29T00:28:30.505Z,81.32
2018-09-29T00:29:30.491Z,81.42
2018-09-29T00:30:30.464Z,80.60
2018-09-29T00:31:30.459Z,80.70
2018-09-29T00:32:30.444Z,81.52
2018-09-29T00:33:30.434Z,81.42
2018-09-29T00:34:30.446Z,81.11
2018-09-29T00:35:30.412Z,81.21
2018-09-29T00:36:30.400Z,81.25
2018-09-29T00:37:30.388Z,81.01
2018-09-29T00:38:30.378Z,81.35
2018-09-29T00:39:30.366Z,81.11
2018-09-29T00:40:30.370Z,81.21
2018-09-29T00:41:30.349Z,81.42
2018-09-29T00:42:30.335Z,81.56
2018-09-29T00:43:30.324Z,81.67
2018-09-29T00:44:30.326Z,81.25
2018-09-29T00:45:30.305Z,81.56
2018-09-29T00:46:30.290Z,81.46
2018-09-29T00:47:30.279Z,81.25
2018-09-29T00:48:30.271Z,81.05
2018-09-29T00:49:30.271Z,81.35
2018-09-29T00:50:30.261Z,81.46
2018-09-29T00:51:30.239Z,81.77
2018-09-29T00:52:30.228Z,81.77
2018-09-29T00:53:30.215Z,81.56
2018-09-29T00:54:30.205Z,81.77
2018-09-29T00:55:30.207Z,81.67
2018-09-29T00:56:30.188Z,81.67
2018-09-29T00:57:30.172Z,81.87
2018-09-29T00:58:30.179Z,82.22
2018-09-29T00:59:30.151Z,82.43
2018-09-29T01:00:30.153Z,82.64
2018-09-29T01:01:30.144Z,82.43
2018-09-29T01:02:30.118Z,82.95
2018-09-29T01:03:30.147Z,82.43
2018-09-29T01:04:30.098Z,82.95
2018-09-29T01:05:30.085Z,82.98
2018-09-29T01:06:30.088Z,83.40
2018-09-29T01:07:30.063Z,82.98
2018-09-29T01:08:30.054Z,82.67
2018-09-29T01:09:30.042Z,82.98
2018-09-29T01:10:30.030Z,82.36
2018-09-29T01:11:30.055Z,82.46
2018-09-29T01:12:30.010Z,82.26
2018-09-29T01:13:29.998Z,82.46
2018-09-29T01:14:29.987Z,82.22
2018-09-29T01:15:29.977Z,82.36
2018-09-29T01:16:29.979Z,82.43
2018-09-29T01:17:29.967Z,82.05
2018-09-29T01:18:29.944Z,81.91
2018-09-29T01:19:29.933Z,81.95
2018-09-29T01:20:29.922Z,81.95
2018-09-29T01:21:29.914Z,81.74
2018-09-29T01:22:29.933Z,81.74
2018-09-29T01:23:29.897Z,81.95
2018-09-29T01:24:29.878Z,82.15
2018-09-29T01:25:29.885Z,82.05
2018-09-29T01:26:29.858Z,81.74
2018-09-29T01:27:29.851Z,82.15
2018-09-29T01:28:29.874Z,82.05
2018-09-29T01:29:29.852Z,82.26
2018-09-29T01:30:29.814Z,82.05
2018-09-29T01:31:29.803Z,82.46
2018-09-29T01:32:29.792Z,82.46
2018-09-29T01:33:29.783Z,82.05
2018-09-29T01:34:29.786Z,82.05
2018-09-29T01:35:29.772Z,82.05
2018-09-29T01:36:29.748Z,81.95
2018-09-29T01:37:29.738Z,82.15
2018-09-29T01:38:29.727Z,82.05
2018-09-29T01:39:29.740Z,81.95
2018-09-29T01:40:29.706Z,82.36
2018-09-29T01:41:29.694Z,82.26
2018-09-29T01:42:29.684Z,82.19
2018-09-29T01:43:29.673Z,81.99
2018-09-29T01:44:29.666Z,81.99
2018-09-29T01:45:29.687Z,82.40
2018-09-29T01:46:29.645Z,82.29
2018-09-29T01:47:29.650Z,82.50
2018-09-29T01:48:29.618Z,82.60
2018-09-29T01:49:29.607Z,82.60
2018-09-29T01:50:29.618Z,83.02
2018-09-29T01:51:29.591Z,82.86
2018-09-29T01:52:29.575Z,82.75
2018-09-29T01:53:29.565Z,82.71
2018-09-29T01:54:29.554Z,82.65
2018-09-29T01:55:29.544Z,82.92
2018-09-29T01:56:29.566Z,82.81
2018-09-29T01:57:29.520Z,82.71
2018-09-29T01:58:29.509Z,82.81
2018-09-29T01:59:29.498Z,82.50
2018-09-29T02:00:29.487Z,82.29
2018-09-29T02:01:29.477Z,82.60
2018-09-29T02:02:29.480Z,83.12
2018-09-29T02:03:29.453Z,82.54
2018-09-29T02:04:29.443Z,82.75
2018-09-29T02:05:29.434Z,83.26
2018-09-29T02:06:29.422Z,83.58
2018-09-29T02:07:29.426Z,83.16
2018-09-29T02:08:29.400Z,82.75
2018-09-29T02:09:29.392Z,83.16
2018-09-29T02:10:29.377Z,83.26
2018-09-29T02:11:29.367Z,83.26
2018-09-29T02:12:29.371Z,83.44
2018-09-29T02:13:29.345Z,83.37
2018-09-29T02:14:29.338Z,83.26
2018-09-29T02:15:29.323Z,83.37
2018-09-29T02:16:29.313Z,83.58
2018-09-29T02:17:29.315Z,83.68
2018-09-29T02:18:29.291Z,82.75
2018-09-29T02:19:29.280Z,82.86
2018-09-29T02:20:29.269Z,83.16
2018-09-29T02:21:29.258Z,83.68
2018-09-29T02:22:29.266Z,83.37
2018-09-29T02:23:29.237Z,83.37
2018-09-29T02:24:29.264Z,82.68
2018-09-29T02:25:29.214Z,83.06
2018-09-29T02:26:29.206Z,83.58
2018-09-29T02:27:29.194Z,83.26
2018-09-29T02:28:29.195Z,83.41
2018-09-29T02:29:29.185Z,83.31
2018-09-29T02:30:29.165Z,83.10
2018-09-29T02:31:29.149Z,83.31
2018-09-29T02:32:29.142Z,82.95
2018-09-29T02:33:29.126Z,83.00
2018-09-29T02:34:29.136Z,83.20
2018-09-29T02:35:29.105Z,83.51
2018-09-29T02:36:29.112Z,83.41
2018-09-29T02:37:29.083Z,83.51
2018-09-29T02:38:29.072Z,83.51
2018-09-29T02:39:29.062Z,83.51
2018-09-29T02:40:29.064Z,83.51
2018-09-29T02:41:29.040Z,83.62
2018-09-29T02:42:29.040Z,83.31
2018-09-29T02:43:29.018Z,83.62
2018-09-29T02:44:29.007Z,84.23
2018-09-29T02:45:29.011Z,83.51
2018-09-29T02:46:28.985Z,84.23
2018-09-29T02:47:28.974Z,84.03
2018-09-29T02:48:28.966Z,84.03
2018-09-29T02:49:28.954Z,84.03
2018-09-29T02:50:28.957Z,83.31
2018-09-29T02:51:28.930Z,83.51
2018-09-29T02:52:28.919Z,83.00
2018-09-29T02:53:28.908Z,82.68
2018-09-29T02:54:28.897Z,83.31
2018-09-29T02:55:28.908Z,82.79
2018-09-29T02:56:28.879Z,83.34
2018-09-29T02:57:28.867Z,83.24
2018-09-29T02:58:28.856Z,82.82
2018-09-29T02:59:28.844Z,82.89
2018-09-29T03:00:28.832Z,83.14
2018-09-29T03:01:28.834Z,83.03
2018-09-29T03:02:28.809Z,82.72
2018-09-29T03:03:28.801Z,83.45
2018-09-29T03:04:28.787Z,83.55
2018-09-29T03:05:28.777Z,83.97
2018-09-29T03:06:28.808Z,83.76
2018-09-29T03:07:28.755Z,83.45
2018-09-29T03:08:28.744Z,83.65
2018-09-29T03:09:28.733Z,84.21
2018-09-29T03:10:28.723Z,84.17
2018-09-29T03:11:28.712Z,83.86
2018-09-29T03:12:28.713Z,84.07
2018-09-29T03:13:28.692Z,84.07
2018-09-29T03:14:28.680Z,84.11
2018-09-29T03:15:28.669Z,84.17
2018-09-29T03:16:28.658Z,84.38
2018-09-29T03:17:28.661Z,84.07
2018-09-29T03:18:28.635Z,83.76
2018-09-29T03:19:28.641Z,84.07
2018-09-29T03:20:28.614Z,84.17
2018-09-29T03:21:28.602Z,84.28
2018-09-29T03:22:28.592Z,84.48
2018-09-29T03:23:28.581Z,84.31
2018-09-29T03:24:28.589Z,84.07
2018-09-29T03:25:28.559Z,84.11
2018-09-29T03:26:28.548Z,84.00
2018-09-29T03:27:28.552Z,84.52
2018-09-29T03:28:28.529Z,85.25
2018-09-29T03:29:28.516Z,84.83
2018-09-29T03:30:28.504Z,84.63
2018-09-29T03:31:28.590Z,84.21
2018-09-29T03:32:28.483Z,84.83
2018-09-29T03:33:28.477Z,84.94
2018-09-29T03:34:28.463Z,84.31
2018-09-29T03:35:28.450Z,84.63
2018-09-29T03:36:28.437Z,84.83
2018-09-29T03:37:28.445Z,84.52
2018-09-29T03:38:28.418Z,84.73
2018-09-29T03:39:28.421Z,84.94
2018-09-29T03:40:28.396Z,84.42
2018-09-29T03:41:28.384Z,84.73
2018-09-29T03:42:28.374Z,84.73
2018-09-29T03:43:28.361Z,84.31
2018-09-29T03:44:28.365Z,84.52
2018-09-29T03:45:28.388Z,84.31
2018-09-29T03:46:28.920Z,84.05
2018-09-29T03:47:28.323Z,84.52
2018-09-29T03:48:28.308Z,83.69
2018-09-29T03:49:28.311Z,84.36
2018-09-29T03:50:28.298Z,84.31
2018-09-29T03:51:28.276Z,84.00
2018-09-29T03:52:28.264Z,84.36
2018-09-29T03:53:28.314Z,84.56
2018-09-29T03:54:28.262Z,84.21
2018-09-29T03:55:28.233Z,84.42
2018-09-29T03:56:28.222Z,84.77
2018-09-29T03:57:28.213Z,84.67
2018-09-29T03:58:28.220Z,83.94
2018-09-29T03:59:28.189Z,84.36
2018-09-29T04:00:28.200Z,84.46
2018-09-29T04:01:28.194Z,84.88
2018-09-29T04:02:28.156Z,84.46
2018-09-29T04:03:28.145Z,85.29
2018-09-29T04:04:28.134Z,85.08
2018-09-29T04:05:28.124Z,84.98
2018-09-29T04:06:28.160Z,84.67
2018-09-29T04:07:28.102Z,85.19
2018-09-29T04:08:28.094Z,84.36
2018-09-29T04:09:28.081Z,84.25
2018-09-29T04:10:28.083Z,84.88
2018-09-29T04:11:28.071Z,84.50
2018-09-29T04:12:28.048Z,84.36
2018-09-29T04:13:28.036Z,84.56
2018-09-29T04:14:28.025Z,84.05
2018-09-29T04:15:28.017Z,84.46
2018-09-29T04:16:28.045Z,84.56
2018-09-29T04:17:27.991Z,83.94
2018-09-29T04:18:27.981Z,84.15
2018-09-29T04:19:27.990Z,84.70
2018-09-29T04:20:27.962Z,84.39
2018-09-29T04:21:27.952Z,83.84
2018-09-29T04:22:27.951Z,84.39
2018-09-29T04:23:27.926Z,84.25
2018-09-29T04:24:27.915Z,84.46
2018-09-29T04:25:27.904Z,84.88
2018-09-29T04:26:27.894Z,84.88
2018-09-29T04:27:27.911Z,84.77
2018-09-29T04:28:27.883Z,84.36
2018-09-29T04:29:27.862Z,84.56
2018-09-29T04:30:27.851Z,83.94
2018-09-29T04:31:27.839Z,84.56
2018-09-29T04:32:27.832Z,84.60
2018-09-29T04:33:27.834Z,84.46
2018-09-29T04:34:27.805Z,84.46
2018-09-29T04:35:27.793Z,84.50
2018-09-29T04:36:27.782Z,84.70
2018-09-29T04:37:27.776Z,83.98
2018-09-29T04:38:27.762Z,84.60
2018-09-29T04:39:27.761Z,84.19
2018-09-29T04:40:27.740Z,84.60
2018-09-29T04:41:27.739Z,84.19
2018-09-29T04:42:27.718Z,84.60
2018-09-29T04:43:27.708Z,84.19
2018-09-29T04:44:27.696Z,84.60
2018-09-29T04:45:27.695Z,84.50
2018-09-29T04:46:27.674Z,84.08
2018-09-29T04:47:27.662Z,84.29
2018-09-29T04:48:27.652Z,84.19
2018-09-29T04:49:27.661Z,84.70
2018-09-29T04:50:27.630Z,84.29
2018-09-29T04:51:27.638Z,84.08
2018-09-29T04:52:27.609Z,84.29
2018-09-29T04:53:27.598Z,84.22
2018-09-29T04:54:27.587Z,84.29
2018-09-29T04:55:27.592Z,84.50
2018-09-29T04:56:27.567Z,84.91
2018-09-29T04:57:27.553Z,85.02
2018-09-29T04:58:27.543Z,85.33
2018-09-29T04:59:27.538Z,85.12
2018-09-29T05:00:27.525Z,84.84
2018-09-29T05:01:27.523Z,84.43
2018-09-29T05:02:27.499Z,84.60
2018-09-29T05:03:27.489Z,85.02
2018-09-29T05:04:27.477Z,84.91
2018-09-29T05:05:27.470Z,84.60
2018-09-29T05:06:27.513Z,84.50
2018-09-29T05:07:27.445Z,84.53
2018-09-29T05:08:27.435Z,84.60
2018-09-29T05:09:27.424Z,84.53
2018-09-29T05:10:27.411Z,84.64
2018-09-29T05:11:27.420Z,84.43
2018-09-29T05:12:27.395Z,84.12
2018-09-29T05:13:27.379Z,84.33
2018-09-29T05:14:27.369Z,84.64
2018-09-29T05:15:27.357Z,84.12
2018-09-29T05:16:27.349Z,84.22
2018-09-29T05:17:27.350Z,84.74
2018-09-29T05:18:27.328Z,84.64
2018-09-29T05:19:27.313Z,84.43
2018-09-29T05:20:27.304Z,84.01
2018-09-29T05:21:27.295Z,84.01
2018-09-29T05:22:27.299Z,84.22
2018-09-29T05:23:27.270Z,84.22
2018-09-29T05:24:27.260Z,84.01
2018-09-29T05:25:27.249Z,84.33
2018-09-29T05:26:27.239Z,84.33
2018-09-29T05:27:27.228Z,84.22
2018-09-29T05:28:27.229Z,84.01
2018-09-29T05:29:27.205Z,84.53
2018-09-29T05:30:27.193Z,84.43
2018-09-29T05:31:27.184Z,84.74
2018-09-29T05:32:27.173Z,84.84
2018-09-29T05:33:27.180Z,84.53
2018-09-29T05:34:27.150Z,85.16
2018-09-29T05:35:27.150Z,84.74
2018-09-29T05:36:27.129Z,84.33
2018-09-29T05:37:27.117Z,84.64
2018-09-29T05:38:27.132Z,84.64
2018-09-29T05:39:27.107Z,84.64
2018-09-29T05:40:27.108Z,84.84
2018-09-29T05:41:27.074Z,84.53
2018-09-29T05:42:27.067Z,84.43
2018-09-29T05:43:27.051Z,85.16
2018-09-29T05:44:27.057Z,84.74
2018-09-29T05:45:27.032Z,84.84
2018-09-29T05:46:27.022Z,84.43
2018-09-29T05:47:27.009Z,85.05
2018-09-29T05:48:27.009Z,84.95
2018-09-29T05:49:26.987Z,84.64
2018-09-29T05:50:26.978Z,85.47
2018-09-29T05:51:26.968Z,84.84
2018-09-29T05:52:26.966Z,84.95
2018-09-29T05:53:26.944Z,84.95
2018-09-29T05:54:26.933Z,85.02
2018-09-29T05:55:26.937Z,84.91
2018-09-29T05:56:26.926Z,84.70
2018-09-29T05:57:26.899Z,84.60
2018-09-29T05:58:26.888Z,84.70
2018-09-29T05:59:26.879Z,85.12
2018-09-29T06:00:26.888Z,84.81
2018-09-29T06:01:26.870Z,84.91
2018-09-29T06:02:26.845Z,84.70
2018-09-29T06:03:26.848Z,85.33
2018-09-29T06:04:26.823Z,85.12
2018-09-29T06:05:26.883Z,84.91
2018-09-29T06:06:26.816Z,85.02
2018-09-29T06:07:26.839Z,85.12
2018-09-29T06:08:26.781Z,84.88
2018-09-29T06:09:26.774Z,84.88
2018-09-29T06:10:26.788Z,84.98
2018-09-29T06:11:26.750Z,85.19
2018-09-29T06:12:26.735Z,84.77
2018-09-29T06:13:26.747Z,85.08
2018-09-29T06:14:26.715Z,85.19
2018-09-29T06:15:26.705Z,85.19
2018-09-29T06:16:26.694Z,84.94
2018-09-29T06:17:26.681Z,84.94
2018-09-29T06:18:26.671Z,84.94
2018-09-29T06:19:26.671Z,84.73
2018-09-29T06:20:26.650Z,84.73
2018-09-29T06:21:26.638Z,84.83
2018-09-29T06:22:26.628Z,85.46
2018-09-29T06:23:26.616Z,85.25
2018-09-29T06:24:26.619Z,85.31
2018-09-29T06:25:26.599Z,85.31
2018-09-29T06:26:26.597Z,84.80
2018-09-29T06:27:26.573Z,85.00
2018-09-29T06:28:26.563Z,85.00
2018-09-29T06:29:26.566Z,85.21
2018-09-29T06:30:26.541Z,84.96
2018-09-29T06:31:26.529Z,85.79
2018-09-29T06:32:26.520Z,86.21
2018-09-29T06:33:26.509Z,86.52
2018-09-29T06:34:26.517Z,86.72
2018-09-29T06:35:26.487Z,86.41
2018-09-29T06:36:26.476Z,86.52
2018-09-29T06:37:26.464Z,86.52
2018-09-29T06:38:26.456Z,86.99
2018-09-29T06:39:26.444Z,87.51
2018-09-29T06:40:26.441Z,87.10
2018-09-29T06:41:26.426Z,87.62
2018-09-29T06:42:26.412Z,87.30
2018-09-29T06:43:26.400Z,87.41
2018-09-29T06:44:26.389Z,86.96
2018-09-29T06:45:26.401Z,87.47
2018-09-29T06:46:26.366Z,87.37
2018-09-29T06:47:26.356Z,87.06
2018-09-29T06:48:26.346Z,87.64
2018-09-29T06:49:26.333Z,87.12
2018-09-29T06:50:26.325Z,87.43
2018-09-29T06:51:26.326Z,87.33
2018-09-29T06:52:26.300Z,87.33
2018-09-29T06:53:26.291Z,87.23
2018-09-29T06:54:26.297Z,87.12
2018-09-29T06:55:26.270Z,88.22
2018-09-29T06:56:26.274Z,87.70
2018-09-29T06:57:26.247Z,87.87
2018-09-29T06:58:26.234Z,87.66
2018-09-29T06:59:26.224Z,87.41
2018-09-29T07:00:26.217Z,86.90
2018-09-29T07:01:26.242Z,86.90
2018-09-29T07:02:26.191Z,86.90
2018-09-29T07:03:26.180Z,86.24
2018-09-29T07:04:26.170Z,85.72
2018-09-29T07:05:26.157Z,86.03
2018-09-29T07:06:26.147Z,85.72
2018-09-29T07:07:26.158Z,85.27
2018-09-29T07:08:26.137Z,85.37
2018-09-29T07:09:26.115Z,85.47
2018-09-29T07:10:26.103Z,84.72
2018-09-29T07:11:26.094Z,84.72
2018-09-29T07:12:26.103Z,84.72
2018-09-29T07:13:26.069Z,84.92
2018-09-29T07:14:26.059Z,84.47
2018-09-29T07:15:26.051Z,84.47
2018-09-29T07:16:26.037Z,83.40
2018-09-29T07:17:26.027Z,83.40
2018-09-29T07:18:26.033Z,83.91
2018-09-29T07:19:26.004Z,82.95
2018-09-29T07:20:25.993Z,83.01
2018-09-29T07:21:26.005Z,81.40
2018-09-29T07:22:25.976Z,81.47
2018-09-29T07:23:25.973Z,81.43
2018-09-29T07:24:25.990Z,81.37
2018-09-29T07:25:26.032Z,81.63
2018-09-29T07:26:25.931Z,80.77
2018-09-29T07:27:25.917Z,79.75
2018-09-29T07:28:25.908Z,79.54
2018-09-29T07:29:25.895Z,79.75
2018-09-29T07:30:25.910Z,78.82
2018-09-29T07:31:25.896Z,79.44
2018-09-29T07:32:25.865Z,79.75
2018-09-29T07:33:25.850Z,80.12
2018-09-29T07:34:25.849Z,80.84
2018-09-29T07:35:25.834Z,81.62
2018-09-29T07:36:25.817Z,80.66
2018-09-29T07:37:25.806Z,81.45
2018-09-29T07:38:25.813Z,79.36
2018-09-29T07:39:25.797Z,78.39
2018-09-29T07:40:25.774Z,77.78
2018-09-29T07:41:25.781Z,76.92
2018-09-29T07:42:25.754Z,76.20
2018-09-29T07:43:25.751Z,76.27
2018-09-29T07:44:25.925Z,76.58
2018-09-29T07:45:25.717Z,74.29
2018-09-29T07:46:25.713Z,74.66
2018-09-29T07:47:25.696Z,73.44
2018-09-29T07:48:25.703Z,71.18
2018-09-29T07:49:25.673Z,72.69
2018-09-29T07:50:25.674Z,72.69
2018-09-29T07:51:25.652Z,71.12
2018-09-29T07:52:25.641Z,72.34
2018-09-29T07:53:25.629Z,71.53
2018-09-29T07:54:25.618Z,71.12
2018-09-29T07:55:25.618Z,69.38
2018-09-29T07:56:25.612Z,69.99
2018-09-29T07:57:25.586Z,70.61
2018-09-29T07:58:25.576Z,69.79
2018-09-29T07:59:25.563Z,71.22
2018-09-29T08:00:25.551Z,70.98
2018-09-29T08:01:25.541Z,70.06
2018-09-29T08:02:25.541Z,68.01
2018-09-29T08:03:25.523Z,69.65
2018-09-29T08:04:25.508Z,69.65
2018-09-29T08:05:25.498Z,69.65
2018-09-29T08:06:25.556Z,69.24
2018-09-29T08:07:25.491Z,69.52
2018-09-29T08:08:25.468Z,69.11
2018-09-29T08:09:25.455Z,69.62
2018-09-29T08:10:25.445Z,69.52
2018-09-29T08:11:25.435Z,69.59
2018-09-29T08:12:25.518Z,68.87
2018-09-29T08:13:25.426Z,68.57
2018-09-29T08:14:25.417Z,69.35
2018-09-29T08:15:25.390Z,67.51
2018-09-29T08:16:25.378Z,67.27
2018-09-29T08:17:25.367Z,67.27
2018-09-29T08:18:25.355Z,65.81
2018-09-29T08:19:25.347Z,65.41
2018-09-29T08:20:25.908Z,64.18
2018-09-29T08:21:25.330Z,63.90
2018-09-29T08:22:25.313Z,66.08
2018-09-29T08:23:25.301Z,66.97
2018-09-29T08:24:25.339Z,66.12
2018-09-29T08:25:25.280Z,64.28
2018-09-29T08:26:25.269Z,64.72
2018-09-29T08:27:25.273Z,65.95
2018-09-29T08:28:25.269Z,68.19
2018-09-29T08:29:25.236Z,65.00
2018-09-29T08:30:25.225Z,64.49
2018-09-29T08:31:25.224Z,65.03
2018-09-29T08:32:25.304Z,64.39
2018-09-29T08:33:25.194Z,64.49
2018-09-29T08:34:25.194Z,65.44
2018-09-29T08:35:25.182Z,66.12
2018-09-29T08:36:25.159Z,65.17
2018-09-29T08:37:25.148Z,63.61
2018-09-29T08:38:25.138Z,63.34
2018-09-29T08:39:25.127Z,64.15
2018-09-29T08:40:25.168Z,64.22
2018-09-29T08:41:25.108Z,63.61
2018-09-29T08:42:25.094Z,62.77
2018-09-29T08:43:25.083Z,63.28
2018-09-29T08:44:25.074Z,63.99
2018-09-29T08:45:25.098Z,63.24
2018-09-29T08:46:25.052Z,62.81
2018-09-29T08:47:25.041Z,63.09
2018-09-29T08:48:25.028Z,63.06
2018-09-29T08:49:25.018Z,62.41
2018-09-29T08:50:25.006Z,60.66
2018-09-29T08:51:25.008Z,60.15
2018-09-29T08:52:24.985Z,59.31
2018-09-29T08:53:25.051Z,58.91
2018-09-29T08:54:24.965Z,59.89
2018-09-29T08:55:24.991Z,58.47
2018-09-29T08:56:24.955Z,58.27
2018-09-29T08:57:24.930Z,58.14
2018-09-29T08:58:24.921Z,58.85
2018-09-29T08:59:24.939Z,58.62
2018-09-29T09:00:24.900Z,56.70
2018-09-29T09:01:24.887Z,57.40
2018-09-29T09:02:24.886Z,57.30
2018-09-29T09:03:24.865Z,56.90
2018-09-29T09:04:24.856Z,55.27
2018-09-29T09:05:24.842Z,56.21
2018-09-29T09:06:24.831Z,57.43
2018-09-29T09:07:24.845Z,57.84
2018-09-29T09:08:24.810Z,57.53
2018-09-29T09:09:24.849Z,56.99
2018-09-29T09:10:24.961Z,56.90
2018-09-29T09:11:24.802Z,55.45
2018-09-29T09:12:24.767Z,55.85
2018-09-29T09:13:24.754Z,56.16
2018-09-29T09:14:24.744Z,54.94
2018-09-29T09:15:24.732Z,54.53
2018-09-29T09:16:24.730Z,54.84
2018-09-29T09:17:24.712Z,55.15
2018-09-29T09:18:24.712Z,55.76
2018-09-29T09:19:24.688Z,55.76
2018-09-29T09:20:24.679Z,55.25
2018-09-29T09:21:24.673Z,55.30
2018-09-29T09:22:24.655Z,56.21
2018-09-29T09:23:24.657Z,55.27
2018-09-29T09:24:24.655Z,55.35
2018-09-29T09:25:24.630Z,54.74
2018-09-29T09:26:24.613Z,54.71
2018-09-29T09:27:24.602Z,54.92
2018-09-29T09:28:24.615Z,54.08
2018-09-29T09:29:24.596Z,54.38
2018-09-29T09:30:24.694Z,53.52
2018-09-29T09:31:24.563Z,53.02
2018-09-29T09:32:24.551Z,53.60
2018-09-29T09:33:24.539Z,53.40
2018-09-29T09:34:24.529Z,53.09
2018-09-29T09:35:24.536Z,53.80
2018-09-29T09:36:24.528Z,53.30
2018-09-29T09:37:24.495Z,53.07
2018-09-29T09:38:24.483Z,53.17
2018-09-29T09:39:24.475Z,53.45
2018-09-29T09:40:24.462Z,51.03
2018-09-29T09:41:24.475Z,51.32
2018-09-29T09:42:24.442Z,52.74
2018-09-29T09:43:24.436Z,51.53
2018-09-29T09:44:24.421Z,50.21
2018-09-29T09:45:24.411Z,49.69
2018-09-29T09:46:24.400Z,49.58
2018-09-29T09:47:24.402Z,49.76
2018-09-29T09:48:24.378Z,49.96
2018-09-29T09:49:24.415Z,49.28
2018-09-29T09:50:24.358Z,49.48
2018-09-29T09:51:24.347Z,48.07
2018-09-29T09:52:24.347Z,48.88
2018-09-29T09:53:24.327Z,49.18
2018-09-29T09:54:24.315Z,49.38
2018-09-29T09:55:24.303Z,49.28
2018-09-29T09:56:24.320Z,49.36
2018-09-29T09:57:24.295Z,49.24
2018-09-29T09:58:24.273Z,48.93
2018-09-29T09:59:24.267Z,47.62
2018-09-29T10:00:24.251Z,47.82
2018-09-29T10:01:24.242Z,48.33
2018-09-29T10:02:24.242Z,48.02
2018-09-29T10:03:24.219Z,48.22
2018-09-29T10:04:24.210Z,48.75
2018-09-29T10:05:24.199Z,48.35
2018-09-29T10:06:24.232Z,48.75
2018-09-29T10:07:24.192Z,49.48
2018-09-29T10:08:24.168Z,49.79
2018-09-29T10:09:24.164Z,49.58
2018-09-29T10:10:24.147Z,49.46
2018-09-29T10:11:24.137Z,49.84
2018-09-29T10:12:24.142Z,48.91
2018-09-29T10:13:24.137Z,49.62
2018-09-29T10:14:24.728Z,49.39
2018-09-29T10:15:24.090Z,46.77
2018-09-29T10:16:24.079Z,47.50
2018-09-29T10:17:24.115Z,48.13
2018-09-29T10:18:24.059Z,47.54
2018-09-29T10:19:24.059Z,48.78
2018-09-29T10:20:24.035Z,48.78
2018-09-29T10:21:24.023Z,49.69
2018-09-29T10:22:24.013Z,48.75
2018-09-29T10:23:24.050Z,49.87
2018-09-29T10:24:23.992Z,48.63
2018-09-29T10:25:23.996Z,49.52
2018-09-29T10:26:23.971Z,46.71
2018-09-29T10:27:23.960Z,49.46
2018-09-29T10:28:23.953Z,48.35
2018-09-29T10:29:23.937Z,49.69
2018-09-29T10:30:23.940Z,49.69
2018-09-29T10:31:23.921Z,49.36
2018-09-29T10:32:23.919Z,49.33
2018-09-29T10:33:23.896Z,48.61
2018-09-29T10:34:23.885Z,47.60
2018-09-29T10:35:23.876Z,48.00
2018-09-29T10:36:24.037Z,45.90
2018-09-29T10:37:23.852Z,47.47
2018-09-29T10:38:23.844Z,48.54
2018-09-29T10:39:23.831Z,51.48
2018-09-29T10:40:23.820Z,51.96
2018-09-29T10:41:23.804Z,51.35
2018-09-29T10:42:23.813Z,50.80
2018-09-29T10:43:23.784Z,49.87
2018-09-29T10:44:23.775Z,49.24
2018-09-29T10:45:23.763Z,47.92
2018-09-29T10:46:23.767Z,48.71
2018-09-29T10:47:23.741Z,46.19
2018-09-29T10:48:23.730Z,46.31
2018-09-29T10:49:23.721Z,46.66
2018-09-29T10:50:23.707Z,46.30
2018-09-29T10:51:23.719Z,48.03
2018-09-29T10:52:23.688Z,48.16
2018-09-29T10:53:23.674Z,49.40
2018-09-29T10:54:23.662Z,49.86
2018-09-29T10:55:23.652Z,49.71
2018-09-29T10:56:23.661Z,48.58
2018-09-29T10:57:24.442Z,47.44
2018-09-29T10:58:23.617Z,48.53
2018-09-29T10:59:23.607Z,47.30
2018-09-29T11:00:23.596Z,45.68
2018-09-29T11:01:23.589Z,45.62
2018-09-29T11:02:23.594Z,47.77
2018-09-29T11:03:23.564Z,48.37
2018-09-29T11:04:23.554Z,48.55
2018-09-29T11:05:23.545Z,47.85
2018-09-29T11:06:23.537Z,48.13
2018-09-29T11:07:23.518Z,46.59
2018-09-29T11:08:23.523Z,45.66
2018-09-29T11:09:23.501Z,47.09
2018-09-29T11:10:23.488Z,45.06
2018-09-29T11:11:23.478Z,46.26
2018-09-29T11:12:23.465Z,46.57
2018-09-29T11:13:23.477Z,46.77
2018-09-29T11:14:23.508Z,45.84
2018-09-29T11:15:23.434Z,45.64
2018-09-29T11:16:23.425Z,44.93
2018-09-29T11:17:23.413Z,45.66
2018-09-29T11:18:23.447Z,45.76
2018-09-29T11:19:23.392Z,46.26
2018-09-29T11:20:23.381Z,44.78
2018-09-29T11:21:23.370Z,46.71
2018-09-29T11:22:23.359Z,47.12
2018-09-29T11:23:23.349Z,47.62
2018-09-29T11:24:23.347Z,48.22
2018-09-29T11:25:23.324Z,46.89
2018-09-29T11:26:23.328Z,47.19
2018-09-29T11:27:23.304Z,45.98
2018-09-29T11:28:23.295Z,46.69
2018-09-29T11:29:23.283Z,45.76
2018-09-29T11:30:23.290Z,46.59
2018-09-29T11:31:23.263Z,46.57
2018-09-29T11:32:23.255Z,47.07
2018-09-29T11:33:23.243Z,45.86
2018-09-29T11:34:23.467Z,47.07
2018-09-29T11:35:23.241Z,46.57
2018-09-29T11:36:23.225Z,45.64
2018-09-29T11:37:23.200Z,46.26
2018-09-29T11:38:23.191Z,46.25
2018-09-29T11:39:23.214Z,45.94
2018-09-29T11:40:23.208Z,46.14
2018-09-29T11:41:23.178Z,46.14
2018-09-29T11:42:23.154Z,45.74
2018-09-29T11:43:23.138Z,45.74
2018-09-29T11:44:23.128Z,45.42
2018-09-29T11:45:23.116Z,45.92
2018-09-29T11:46:23.105Z,45.19
2018-09-29T11:47:23.109Z,45.70
2018-09-29T11:48:23.081Z,46.18
2018-09-29T11:49:23.072Z,45.17
2018-09-29T11:50:23.061Z,44.47
2018-09-29T11:51:23.068Z,44.87
2018-09-29T11:52:23.038Z,45.90
2018-09-29T11:53:23.027Z,44.57
2018-09-29T11:54:23.015Z,45.07
2018-09-29T11:55:23.005Z,44.55
2018-09-29T11:56:23.094Z,44.95
2018-09-29T11:57:22.998Z,45.05
2018-09-29T11:58:22.972Z,44.32
2018-09-29T11:59:22.960Z,44.23
2018-09-29T12:00:22.950Z,43.72
2018-09-29T12:01:22.951Z,42.72
2018-09-29T12:02:22.994Z,43.32
2018-09-29T12:03:22.916Z,42.61
2018-09-29T12:04:22.905Z,42.61
2018-09-29T12:05:22.894Z,42.52
2018-09-29T12:06:22.957Z,43.42
2018-09-29T12:07:22.915Z,42.92
2018-09-29T12:08:22.860Z,43.22
2018-09-29T12:09:22.849Z,43.12
2018-09-29T12:10:23.458Z,42.82
2018-09-29T12:11:22.830Z,42.32
2018-09-29T12:12:22.857Z,41.13
2018-09-29T12:13:22.806Z,43.46
2018-09-29T12:14:22.795Z,42.60
2018-09-29T12:15:22.783Z,44.75
2018-09-29T12:16:22.772Z,46.06
2018-09-29T12:17:22.761Z,43.97
2018-09-29T12:18:22.783Z,44.47
2018-09-29T12:19:22.739Z,46.47
2018-09-29T12:20:22.728Z,44.95
2018-09-29T12:21:22.721Z,44.73
2018-09-29T12:22:22.782Z,45.03
2018-09-29T12:23:22.711Z,43.51
2018-09-29T12:24:22.726Z,43.80
2018-09-29T12:25:22.676Z,44.79
2018-09-29T12:26:22.665Z,44.19
2018-09-29T12:27:24.920Z,43.56
2018-09-29T12:28:22.644Z,44.07
2018-09-29T12:29:22.696Z,42.66
2018-09-29T12:30:22.636Z,42.76
2018-09-29T12:31:22.611Z,41.85
2018-09-29T12:32:22.601Z,42.19
2018-09-29T12:33:22.591Z,44.13
2018-09-29T12:34:22.579Z,44.43
2018-09-29T12:35:22.583Z,42.72
2018-09-29T12:36:22.557Z,44.67
2018-09-29T12:37:22.663Z,44.75
2018-09-29T12:38:22.537Z,44.37
2018-09-29T12:39:22.525Z,46.39
2018-09-29T12:40:22.528Z,46.26
2018-09-29T12:41:22.503Z,45.97
2018-09-29T12:42:22.495Z,45.64
2018-09-29T12:43:22.480Z,42.90
2018-09-29T12:44:22.508Z,43.80
2018-09-29T12:45:22.475Z,44.39
2018-09-29T12:46:22.460Z,42.68
2018-09-29T12:47:22.450Z,42.76
2018-09-29T12:48:22.425Z,42.66
2018-09-29T12:49:22.415Z,42.88
2018-09-29T12:50:22.403Z,44.09
2018-09-29T12:51:22.416Z,44.19
2018-09-29T12:52:22.383Z,44.37